sensor_id;sensor_type;location;lat;lon;timestamp;P1;durP1;ratioP1;P2;durP2;ratioP2
11171;SDS011;5642;50.830;12.082;2024-01-07T00:00:56;9.30;;;6.68;;
11171;SDS011;5642;50.830;12.082;2024-01-07T00:03:47;8.50;;;6.45;;
11171;SDS011;5642;50.830;12.082;2024-01-07T00:06:37;9.77;;;6.68;;
11171;SDS011;5642;50.830;12.082;2024-01-07T00:09:30;8.95;;;6.68;;
11171;SDS011;5642;50.830;12.082;2024-01-07T00:12:14;8.68;;;6.00;;
11171;SDS011;5642;50.830;12.082;2024-01-07T00:14:57;10.90;;;7.47;;
11171;SDS011;5642;50.830;12.082;2024-01-07T00:17:46;12.48;;;8.65;;
11171;SDS011;5642;50.830;12.082;2024-01-07T00:20:22;11.40;;;7.72;;
11171;SDS011;5642;50.830;12.082;2024-01-07T00:23:03;12.35;;;8.35;;
11171;SDS011;5642;50.830;12.082;2024-01-07T00:25:48;11.00;;;7.20;;
11171;SDS011;5642;50.830;12.082;2024-01-07T00:28:28;12.10;;;8.30;;
11171;SDS011;5642;50.830;12.082;2024-01-07T00:31:24;12.05;;;8.15;;
11171;SDS011;5642;50.830;12.082;2024-01-07T00:34:09;11.93;;;8.57;;
11171;SDS011;5642;50.830;12.082;2024-01-07T00:36:51;13.77;;;9.02;;
11171;SDS011;5642;50.830;12.082;2024-01-07T00:39:47;12.98;;;8.05;;
11171;SDS011;5642;50.830;12.082;2024-01-07T00:42:31;12.63;;;8.90;;
11171;SDS011;5642;50.830;12.082;2024-01-07T00:45:06;13.27;;;9.00;;
11171;SDS011;5642;50.830;12.082;2024-01-07T00:47:53;11.95;;;8.32;;
11171;SDS011;5642;50.830;12.082;2024-01-07T00:50:44;13.15;;;9.43;;
11171;SDS011;5642;50.830;12.082;2024-01-07T00:53:18;12.50;;;8.82;;
11171;SDS011;5642;50.830;12.082;2024-01-07T00:56:07;12.50;;;8.65;;
11171;SDS011;5642;50.830;12.082;2024-01-07T00:58:48;13.27;;;9.00;;
11171;SDS011;5642;50.830;12.082;2024-01-07T01:01:30;11.20;;;7.80;;
11171;SDS011;5642;50.830;12.082;2024-01-07T01:04:13;12.90;;;9.02;;
11171;SDS011;5642;50.830;12.082;2024-01-07T01:07:02;11.40;;;8.55;;
11171;SDS011;5642;50.830;12.082;2024-01-07T01:09:53;11.80;;;8.02;;
11171;SDS011;5642;50.830;12.082;2024-01-07T01:12:37;11.85;;;8.30;;
11171;SDS011;5642;50.830;12.082;2024-01-07T01:15:19;11.20;;;7.60;;
11171;SDS011;5642;50.830;12.082;2024-01-07T01:18:05;10.50;;;7.90;;
11171;SDS011;5642;50.830;12.082;2024-01-07T01:20:55;11.45;;;8.07;;
11171;SDS011;5642;50.830;12.082;2024-01-07T01:23:43;12.18;;;7.95;;
11171;SDS011;5642;50.830;12.082;2024-01-07T01:26:32;10.40;;;7.57;;
11171;SDS011;5642;50.830;12.082;2024-01-07T01:29:17;11.07;;;7.57;;
11171;SDS011;5642;50.830;12.082;2024-01-07T01:31:50;9.55;;;6.90;;
11171;SDS011;5642;50.830;12.082;2024-01-07T01:34:40;11.40;;;8.10;;
11171;SDS011;5642;50.830;12.082;2024-01-07T01:37:28;10.35;;;7.55;;
11171;SDS011;5642;50.830;12.082;2024-01-07T01:40:19;10.95;;;7.38;;
11171;SDS011;5642;50.830;12.082;2024-01-07T01:42:51;10.45;;;7.32;;
11171;SDS011;5642;50.830;12.082;2024-01-07T01:45:35;10.88;;;7.88;;
11171;SDS011;5642;50.830;12.082;2024-01-07T01:48:19;10.32;;;7.28;;
11171;SDS011;5642;50.830;12.082;2024-01-07T01:51:04;11.35;;;8.23;;
11171;SDS011;5642;50.830;12.082;2024-01-07T01:53:48;10.38;;;8.13;;
11171;SDS011;5642;50.830;12.082;2024-01-07T01:56:28;12.70;;;9.25;;
11171;SDS011;5642;50.830;12.082;2024-01-07T01:59:10;13.57;;;8.40;;
11171;SDS011;5642;50.830;12.082;2024-01-07T02:02:05;13.70;;;9.55;;
11171;SDS011;5642;50.830;12.082;2024-01-07T02:04:52;12.50;;;9.13;;
11171;SDS011;5642;50.830;12.082;2024-01-07T02:07:25;12.50;;;9.20;;
11171;SDS011;5642;50.830;12.082;2024-01-07T02:10:24;10.70;;;8.23;;
11171;SDS011;5642;50.830;12.082;2024-01-07T02:13:09;15.80;;;10.63;;
11171;SDS011;5642;50.830;12.082;2024-01-07T02:15:43;11.82;;;8.82;;
11171;SDS011;5642;50.830;12.082;2024-01-07T02:18:25;11.63;;;8.48;;
11171;SDS011;5642;50.830;12.082;2024-01-07T02:21:24;10.40;;;8.25;;
11171;SDS011;5642;50.830;12.082;2024-01-07T02:24:08;10.07;;;7.28;;
11171;SDS011;5642;50.830;12.082;2024-01-07T02:26:52;8.43;;;6.97;;
11171;SDS011;5642;50.830;12.082;2024-01-07T02:29:33;10.07;;;7.88;;
11171;SDS011;5642;50.830;12.082;2024-01-07T02:32:20;9.65;;;7.97;;
11171;SDS011;5642;50.830;12.082;2024-01-07T02:35:11;9.75;;;8.25;;
11171;SDS011;5642;50.830;12.082;2024-01-07T02:38:06;9.32;;;7.13;;
11171;SDS011;5642;50.830;12.082;2024-01-07T02:40:46;9.20;;;7.57;;
11171;SDS011;5642;50.830;12.082;2024-01-07T02:43:37;8.48;;;6.93;;
11171;SDS011;5642;50.830;12.082;2024-01-07T02:46:20;9.93;;;7.25;;
11171;SDS011;5642;50.830;12.082;2024-01-07T02:49:01;8.35;;;7.10;;
11171;SDS011;5642;50.830;12.082;2024-01-07T02:51:44;8.02;;;7.05;;
11171;SDS011;5642;50.830;12.082;2024-01-07T02:54:36;8.73;;;7.18;;
11171;SDS011;5642;50.830;12.082;2024-01-07T02:57:25;9.32;;;7.15;;
11171;SDS011;5642;50.830;12.082;2024-01-07T03:00:08;8.25;;;6.82;;
11171;SDS011;5642;50.830;12.082;2024-01-07T03:03:00;9.82;;;7.68;;
11171;SDS011;5642;50.830;12.082;2024-01-07T03:05:50;9.02;;;7.35;;
11171;SDS011;5642;50.830;12.082;2024-01-07T03:08:25;8.75;;;7.18;;
11171;SDS011;5642;50.830;12.082;2024-01-07T03:10:54;7.63;;;6.72;;
11171;SDS011;5642;50.830;12.082;2024-01-07T03:13:36;7.90;;;6.18;;
11171;SDS011;5642;50.830;12.082;2024-01-07T03:16:27;7.68;;;6.38;;
11171;SDS011;5642;50.830;12.082;2024-01-07T03:19:18;7.45;;;6.07;;
11171;SDS011;5642;50.830;12.082;2024-01-07T03:21:59;6.07;;;4.88;;
11171;SDS011;5642;50.830;12.082;2024-01-07T03:24:45;6.80;;;5.75;;
11171;SDS011;5642;50.830;12.082;2024-01-07T03:27:36;8.40;;;6.43;;
11171;SDS011;5642;50.830;12.082;2024-01-07T03:30:07;6.13;;;5.00;;
11171;SDS011;5642;50.830;12.082;2024-01-07T03:32:43;7.35;;;6.03;;
11171;SDS011;5642;50.830;12.082;2024-01-07T03:35:14;6.57;;;5.57;;
11171;SDS011;5642;50.830;12.082;2024-01-07T03:38:02;6.55;;;5.00;;
11171;SDS011;5642;50.830;12.082;2024-01-07T03:40:40;6.22;;;5.47;;
11171;SDS011;5642;50.830;12.082;2024-01-07T03:43:29;5.90;;;4.75;;
11171;SDS011;5642;50.830;12.082;2024-01-07T03:46:07;5.88;;;5.20;;
11171;SDS011;5642;50.830;12.082;2024-01-07T03:48:47;7.05;;;5.20;;
11171;SDS011;5642;50.830;12.082;2024-01-07T03:51:18;5.68;;;4.90;;
11171;SDS011;5642;50.830;12.082;2024-01-07T03:54:02;6.60;;;5.07;;
11171;SDS011;5642;50.830;12.082;2024-01-07T03:56:46;5.63;;;4.90;;
11171;SDS011;5642;50.830;12.082;2024-01-07T03:59:19;5.50;;;4.70;;
11171;SDS011;5642;50.830;12.082;2024-01-07T04:01:52;5.80;;;5.20;;
11171;SDS011;5642;50.830;12.082;2024-01-07T04:04:32;5.63;;;4.70;;
11171;SDS011;5642;50.830;12.082;2024-01-07T04:07:19;5.10;;;4.50;;
11171;SDS011;5642;50.830;12.082;2024-01-07T04:09:57;4.50;;;4.10;;
11171;SDS011;5642;50.830;12.082;2024-01-07T04:12:50;4.78;;;4.25;;
11171;SDS011;5642;50.830;12.082;2024-01-07T04:15:34;4.93;;;4.30;;
11171;SDS011;5642;50.830;12.082;2024-01-07T04:18:21;4.82;;;4.13;;
11171;SDS011;5642;50.830;12.082;2024-01-07T04:20:57;5.50;;;4.57;;
11171;SDS011;5642;50.830;12.082;2024-01-07T04:23:31;5.07;;;4.55;;
11171;SDS011;5642;50.830;12.082;2024-01-07T04:26:00;4.97;;;4.45;;
11171;SDS011;5642;50.830;12.082;2024-01-07T04:28:42;4.72;;;4.20;;
11171;SDS011;5642;50.830;12.082;2024-01-07T04:31:14;6.65;;;4.93;;
11171;SDS011;5642;50.830;12.082;2024-01-07T04:33:46;5.63;;;4.78;;
11171;SDS011;5642;50.830;12.082;2024-01-07T04:36:22;4.72;;;4.20;;
11171;SDS011;5642;50.830;12.082;2024-01-07T04:38:53;4.45;;;4.00;;
11171;SDS011;5642;50.830;12.082;2024-01-07T04:41:27;5.55;;;4.40;;
11171;SDS011;5642;50.830;12.082;2024-01-07T04:44:00;4.10;;;3.70;;
11171;SDS011;5642;50.830;12.082;2024-01-07T04:46:34;4.75;;;4.20;;
11171;SDS011;5642;50.830;12.082;2024-01-07T04:49:19;4.53;;;4.10;;
11171;SDS011;5642;50.830;12.082;2024-01-07T04:52:02;5.10;;;4.60;;
11171;SDS011;5642;50.830;12.082;2024-01-07T04:54:34;5.28;;;4.53;;
11171;SDS011;5642;50.830;12.082;2024-01-07T04:57:08;5.30;;;4.80;;
11171;SDS011;5642;50.830;12.082;2024-01-07T04:59:43;4.85;;;4.20;;
11171;SDS011;5642;50.830;12.082;2024-01-07T05:02:20;4.97;;;4.45;;
11171;SDS011;5642;50.830;12.082;2024-01-07T05:04:59;4.85;;;4.35;;
11171;SDS011;5642;50.830;12.082;2024-01-07T05:07:39;5.07;;;4.30;;
11171;SDS011;5642;50.830;12.082;2024-01-07T05:10:14;4.78;;;4.28;;
11171;SDS011;5642;50.830;12.082;2024-01-07T05:12:43;5.22;;;4.32;;
11171;SDS011;5642;50.830;12.082;2024-01-07T05:15:19;4.97;;;4.47;;
11171;SDS011;5642;50.830;12.082;2024-01-07T05:17:53;5.28;;;4.63;;
11171;SDS011;5642;50.830;12.082;2024-01-07T05:20:30;5.15;;;4.55;;
11171;SDS011;5642;50.830;12.082;2024-01-07T05:23:04;4.20;;;3.80;;
11171;SDS011;5642;50.830;12.082;2024-01-07T05:25:38;4.45;;;4.05;;
11171;SDS011;5642;50.830;12.082;2024-01-07T05:28:13;6.35;;;4.78;;
11171;SDS011;5642;50.830;12.082;2024-01-07T05:30:45;5.18;;;4.68;;
11171;SDS011;5642;50.830;12.082;2024-01-07T05:33:15;5.40;;;4.35;;
11171;SDS011;5642;50.830;12.082;2024-01-07T05:35:47;4.47;;;3.90;;
11171;SDS011;5642;50.830;12.082;2024-01-07T05:38:26;4.88;;;4.38;;
11171;SDS011;5642;50.830;12.082;2024-01-07T05:41:01;5.45;;;4.57;;
11171;SDS011;5642;50.830;12.082;2024-01-07T05:43:46;4.30;;;3.85;;
11171;SDS011;5642;50.830;12.082;2024-01-07T05:58:00;4.65;;;3.97;;
11171;SDS011;5642;50.830;12.082;2024-01-07T06:00:31;5.55;;;4.55;;
11171;SDS011;5642;50.830;12.082;2024-01-07T06:03:18;5.07;;;4.45;;
11171;SDS011;5642;50.830;12.082;2024-01-07T06:06:04;5.65;;;4.65;;
11171;SDS011;5642;50.830;12.082;2024-01-07T06:08:38;5.60;;;4.57;;
11171;SDS011;5642;50.830;12.082;2024-01-07T06:11:14;5.78;;;4.40;;
11171;SDS011;5642;50.830;12.082;2024-01-07T06:13:58;4.40;;;3.55;;
11171;SDS011;5642;50.830;12.082;2024-01-07T06:16:37;5.57;;;3.80;;
11171;SDS011;5642;50.830;12.082;2024-01-07T06:19:10;3.60;;;3.30;;
11171;SDS011;5642;50.830;12.082;2024-01-07T06:21:50;5.95;;;4.25;;
11171;SDS011;5642;50.830;12.082;2024-01-07T06:24:36;4.78;;;4.15;;
11171;SDS011;5642;50.830;12.082;2024-01-07T06:27:07;5.53;;;3.92;;
11171;SDS011;5642;50.830;12.082;2024-01-07T06:29:57;5.28;;;4.13;;
11171;SDS011;5642;50.830;12.082;2024-01-07T06:32:38;4.18;;;3.75;;
11171;SDS011;5642;50.830;12.082;2024-01-07T06:35:22;4.35;;;3.95;;
11171;SDS011;5642;50.830;12.082;2024-01-07T06:37:56;5.32;;;4.20;;
11171;SDS011;5642;50.830;12.082;2024-01-07T06:40:26;5.03;;;4.00;;
11171;SDS011;5642;50.830;12.082;2024-01-07T06:43:02;3.85;;;3.30;;
11171;SDS011;5642;50.830;12.082;2024-01-07T06:45:45;4.25;;;3.58;;
11171;SDS011;5642;50.830;12.082;2024-01-07T06:48:17;4.97;;;3.90;;
11171;SDS011;5642;50.830;12.082;2024-01-07T06:51:03;3.70;;;3.10;;
11171;SDS011;5642;50.830;12.082;2024-01-07T06:53:50;3.72;;;3.33;;
11171;SDS011;5642;50.830;12.082;2024-01-07T06:56:40;4.93;;;3.50;;
11171;SDS011;5642;50.830;12.082;2024-01-07T06:59:31;3.30;;;3.00;;
11171;SDS011;5642;50.830;12.082;2024-01-07T07:02:12;3.63;;;3.20;;
11171;SDS011;5642;50.830;12.082;2024-01-07T07:05:04;4.43;;;3.00;;
11171;SDS011;5642;50.830;12.082;2024-01-07T07:07:43;3.53;;;3.03;;
11171;SDS011;5642;50.830;12.082;2024-01-07T07:10:12;2.95;;;2.67;;
11171;SDS011;5642;50.830;12.082;2024-01-07T07:12:55;2.95;;;2.70;;
11171;SDS011;5642;50.830;12.082;2024-01-07T07:15:25;3.65;;;2.92;;
11171;SDS011;5642;50.830;12.082;2024-01-07T07:17:58;3.97;;;2.95;;
11171;SDS011;5642;50.830;12.082;2024-01-07T07:20:35;2.63;;;2.42;;
11171;SDS011;5642;50.830;12.082;2024-01-07T07:23:21;3.00;;;2.70;;
11171;SDS011;5642;50.830;12.082;2024-01-07T07:25:50;3.15;;;2.78;;
11171;SDS011;5642;50.830;12.082;2024-01-07T07:28:34;3.53;;;3.08;;
11171;SDS011;5642;50.830;12.082;2024-01-07T07:31:19;3.05;;;2.58;;
11171;SDS011;5642;50.830;12.082;2024-01-07T07:34:03;3.60;;;3.05;;
11171;SDS011;5642;50.830;12.082;2024-01-07T07:36:49;3.65;;;2.95;;
11171;SDS011;5642;50.830;12.082;2024-01-07T07:39:18;3.30;;;3.00;;
11171;SDS011;5642;50.830;12.082;2024-01-07T07:41:59;3.60;;;2.85;;
11171;SDS011;5642;50.830;12.082;2024-01-07T07:44:48;3.33;;;2.55;;
11171;SDS011;5642;50.830;12.082;2024-01-07T07:47:33;3.72;;;3.10;;
11171;SDS011;5642;50.830;12.082;2024-01-07T07:50:22;3.45;;;2.80;;
11171;SDS011;5642;50.830;12.082;2024-01-07T07:52:49;3.95;;;2.92;;
11171;SDS011;5642;50.830;12.082;2024-01-07T07:55:35;3.60;;;3.05;;
11171;SDS011;5642;50.830;12.082;2024-01-07T07:58:12;4.03;;;3.05;;
11171;SDS011;5642;50.830;12.082;2024-01-07T08:01:02;3.63;;;2.95;;
11171;SDS011;5642;50.830;12.082;2024-01-07T08:03:45;3.63;;;2.72;;
11171;SDS011;5642;50.830;12.082;2024-01-07T08:06:27;4.32;;;3.22;;
11171;SDS011;5642;50.830;12.082;2024-01-07T08:09:01;3.60;;;3.03;;
11171;SDS011;5642;50.830;12.082;2024-01-07T08:11:51;3.33;;;2.70;;
11171;SDS011;5642;50.830;12.082;2024-01-07T08:14:26;3.10;;;2.80;;
11171;SDS011;5642;50.830;12.082;2024-01-07T08:17:13;2.90;;;2.70;;
11171;SDS011;5642;50.830;12.082;2024-01-07T08:20:01;3.22;;;2.72;;
11171;SDS011;5642;50.830;12.082;2024-01-07T08:22:50;3.00;;;2.70;;
11171;SDS011;5642;50.830;12.082;2024-01-07T08:25:32;2.75;;;2.40;;
11171;SDS011;5642;50.830;12.082;2024-01-07T08:28:17;3.87;;;3.00;;
11171;SDS011;5642;50.830;12.082;2024-01-07T08:31:06;3.13;;;2.70;;
11171;SDS011;5642;50.830;12.082;2024-01-07T08:44:28;3.03;;;2.53;;
11171;SDS011;5642;50.830;12.082;2024-01-07T08:47:14;2.85;;;2.53;;
11171;SDS011;5642;50.830;12.082;2024-01-07T08:49:44;2.95;;;2.50;;
11171;SDS011;5642;50.830;12.082;2024-01-07T08:52:23;2.67;;;2.47;;
11171;SDS011;5642;50.830;12.082;2024-01-07T08:55:13;2.40;;;2.20;;
11171;SDS011;5642;50.830;12.082;2024-01-07T08:57:46;3.60;;;2.70;;
11171;SDS011;5642;50.830;12.082;2024-01-07T09:00:21;2.97;;;2.53;;
11171;SDS011;5642;50.830;12.082;2024-01-07T09:03:03;2.72;;;2.40;;
11171;SDS011;5642;50.830;12.082;2024-01-07T09:05:45;2.85;;;2.50;;
11171;SDS011;5642;50.830;12.082;2024-01-07T09:08:22;2.83;;;2.53;;
11171;SDS011;5642;50.830;12.082;2024-01-07T09:10:55;2.47;;;2.28;;
11171;SDS011;5642;50.830;12.082;2024-01-07T09:13:33;3.28;;;2.50;;
11171;SDS011;5642;50.830;12.082;2024-01-07T09:16:02;2.60;;;2.28;;
11171;SDS011;5642;50.830;12.082;2024-01-07T09:18:36;2.78;;;2.40;;
11171;SDS011;5642;50.830;12.082;2024-01-07T09:21:09;2.25;;;2.05;;
11171;SDS011;5642;50.830;12.082;2024-01-07T09:23:52;2.65;;;2.42;;
11171;SDS011;5642;50.830;12.082;2024-01-07T09:26:30;4.28;;;2.35;;
11171;SDS011;5642;50.830;12.082;2024-01-07T09:29:17;2.58;;;2.20;;
11171;SDS011;5642;50.830;12.082;2024-01-07T09:32:16;1.90;;;1.80;;
11171;SDS011;5642;50.830;12.082;2024-01-07T09:35:01;2.17;;;1.95;;
11171;SDS011;5642;50.830;12.082;2024-01-07T09:37:35;2.00;;;1.77;;
11171;SDS011;5642;50.830;12.082;2024-01-07T09:40:10;2.00;;;1.80;;
11171;SDS011;5642;50.830;12.082;2024-01-07T09:42:43;5.75;;;4.60;;
11171;SDS011;5642;50.830;12.082;2024-01-07T09:45:27;3.45;;;2.80;;
11171;SDS011;5642;50.830;12.082;2024-01-07T09:48:03;4.13;;;3.42;;
11171;SDS011;5642;50.830;12.082;2024-01-07T09:50:47;3.30;;;2.70;;
11171;SDS011;5642;50.830;12.082;2024-01-07T09:53:32;3.17;;;2.67;;
11171;SDS011;5642;50.830;12.082;2024-01-07T09:56:17;2.92;;;2.50;;
11171;SDS011;5642;50.830;12.082;2024-01-07T09:59:03;2.95;;;2.60;;
11171;SDS011;5642;50.830;12.082;2024-01-07T10:01:46;4.05;;;2.83;;
11171;SDS011;5642;50.830;12.082;2024-01-07T10:04:26;2.90;;;2.55;;
11171;SDS011;5642;50.830;12.082;2024-01-07T10:07:09;3.17;;;2.20;;
11171;SDS011;5642;50.830;12.082;2024-01-07T10:09:49;2.75;;;2.40;;
11171;SDS011;5642;50.830;12.082;2024-01-07T10:12:18;3.05;;;2.15;;
11171;SDS011;5642;50.830;12.082;2024-01-07T10:14:56;2.20;;;2.00;;
11171;SDS011;5642;50.830;12.082;2024-01-07T10:17:32;2.90;;;2.60;;
11171;SDS011;5642;50.830;12.082;2024-01-07T10:20:25;2.42;;;2.10;;
11171;SDS011;5642;50.830;12.082;2024-01-07T10:23:28;2.20;;;2.00;;
11171;SDS011;5642;50.830;12.082;2024-01-07T10:26:03;2.80;;;2.40;;
11171;SDS011;5642;50.830;12.082;2024-01-07T10:28:56;2.42;;;2.10;;
11171;SDS011;5642;50.830;12.082;2024-01-07T10:31:32;2.70;;;2.10;;
11171;SDS011;5642;50.830;12.082;2024-01-07T10:34:25;2.30;;;1.70;;
11171;SDS011;5642;50.830;12.082;2024-01-07T10:37:17;1.70;;;1.60;;
11171;SDS011;5642;50.830;12.082;2024-01-07T10:40:01;1.55;;;1.38;;
11171;SDS011;5642;50.830;12.082;2024-01-07T10:42:40;1.75;;;1.65;;
11171;SDS011;5642;50.830;12.082;2024-01-07T10:45:18;5.50;;;3.60;;
11171;SDS011;5642;50.830;12.082;2024-01-07T10:47:48;3.28;;;2.75;;
11171;SDS011;5642;50.830;12.082;2024-01-07T10:50:20;2.88;;;2.58;;
11171;SDS011;5642;50.830;12.082;2024-01-07T10:53:02;2.53;;;2.10;;
11171;SDS011;5642;50.830;12.082;2024-01-07T10:55:53;2.15;;;1.95;;
11171;SDS011;5642;50.830;12.082;2024-01-07T10:58:45;2.05;;;1.90;;
11171;SDS011;5642;50.830;12.082;2024-01-07T11:01:21;2.08;;;1.88;;
11171;SDS011;5642;50.830;12.082;2024-01-07T11:06:43;2.13;;;1.92;;
11171;SDS011;5642;50.830;12.082;2024-01-07T11:09:26;2.17;;;1.88;;
11171;SDS011;5642;50.830;12.082;2024-01-07T11:12:07;2.30;;;2.08;;
11171;SDS011;5642;50.830;12.082;2024-01-07T11:14:41;2.15;;;1.95;;
11171;SDS011;5642;50.830;12.082;2024-01-07T11:20:30;2.25;;;1.90;;
11171;SDS011;5642;50.830;12.082;2024-01-07T11:26:16;1.70;;;1.60;;
11171;SDS011;5642;50.830;12.082;2024-01-07T11:28:52;1.85;;;1.70;;
11171;SDS011;5642;50.830;12.082;2024-01-07T11:31:44;1.65;;;1.55;;
11171;SDS011;5642;50.830;12.082;2024-01-07T11:37:14;1.83;;;1.73;;
11171;SDS011;5642;50.830;12.082;2024-01-07T11:39:46;1.50;;;1.40;;
11171;SDS011;5642;50.830;12.082;2024-01-07T11:42:14;1.77;;;1.65;;
11171;SDS011;5642;50.830;12.082;2024-01-07T11:44:45;2.15;;;1.95;;
11171;SDS011;5642;50.830;12.082;2024-01-07T11:47:26;2.10;;;1.90;;
11171;SDS011;5642;50.830;12.082;2024-01-07T11:50:05;2.38;;;1.90;;
11171;SDS011;5642;50.830;12.082;2024-01-07T11:52:42;1.88;;;1.70;;
11171;SDS011;5642;50.830;12.082;2024-01-07T11:55:10;2.20;;;2.00;;
11171;SDS011;5642;50.830;12.082;2024-01-07T11:57:42;1.98;;;1.80;;
11171;SDS011;5642;50.830;12.082;2024-01-07T12:00:14;2.42;;;1.75;;
11171;SDS011;5642;50.830;12.082;2024-01-07T12:02:42;1.98;;;1.80;;
11171;SDS011;5642;50.830;12.082;2024-01-07T12:05:13;1.77;;;1.67;;
11171;SDS011;5642;50.830;12.082;2024-01-07T12:08:01;2.03;;;1.83;;
11171;SDS011;5642;50.830;12.082;2024-01-07T12:18:07;1.65;;;1.55;;
11171;SDS011;5642;50.830;12.082;2024-01-07T12:20:56;1.48;;;1.30;;
11171;SDS011;5642;50.830;12.082;2024-01-07T12:23:36;1.60;;;1.50;;
11171;SDS011;5642;50.830;12.082;2024-01-07T12:26:15;1.95;;;1.42;;
11171;SDS011;5642;50.830;12.082;2024-01-07T12:28:59;2.08;;;1.88;;
11171;SDS011;5642;50.830;12.082;2024-01-07T12:31:38;2.30;;;1.90;;
11171;SDS011;5642;50.830;12.082;2024-01-07T12:45:33;1.65;;;1.55;;
11171;SDS011;5642;50.830;12.082;2024-01-07T12:48:23;1.52;;;1.42;;
11171;SDS011;5642;50.830;12.082;2024-01-07T12:51:04;2.28;;;1.80;;
11171;SDS011;5642;50.830;12.082;2024-01-07T12:53:44;2.00;;;1.45;;
11171;SDS011;5642;50.830;12.082;2024-01-07T12:56:28;1.92;;;1.60;;
11171;SDS011;5642;50.830;12.082;2024-01-07T12:59:10;1.63;;;1.45;;
11171;SDS011;5642;50.830;12.082;2024-01-07T13:01:50;1.60;;;1.50;;
11171;SDS011;5642;50.830;12.082;2024-01-07T13:04:28;1.95;;;1.77;;
11171;SDS011;5642;50.830;12.082;2024-01-07T13:07:03;1.60;;;1.50;;
11171;SDS011;5642;50.830;12.082;2024-01-07T13:09:43;1.50;;;1.40;;
11171;SDS011;5642;50.830;12.082;2024-01-07T13:12:16;1.10;;;1.10;;
11171;SDS011;5642;50.830;12.082;2024-01-07T13:14:47;2.03;;;1.83;;
11171;SDS011;5642;50.830;12.082;2024-01-07T13:17:21;2.75;;;2.28;;
11171;SDS011;5642;50.830;12.082;2024-01-07T13:19:55;3.35;;;2.42;;
11171;SDS011;5642;50.830;12.082;2024-01-07T13:22:33;2.95;;;2.10;;
11171;SDS011;5642;50.830;12.082;2024-01-07T13:25:05;2.53;;;1.90;;
11171;SDS011;5642;50.830;12.082;2024-01-07T13:27:41;3.38;;;1.83;;
11171;SDS011;5642;50.830;12.082;2024-01-07T13:30:23;2.60;;;1.90;;
11171;SDS011;5642;50.830;12.082;2024-01-07T13:32:49;1.83;;;1.63;;
11171;SDS011;5642;50.830;12.082;2024-01-07T13:35:22;2.08;;;1.42;;
11171;SDS011;5642;50.830;12.082;2024-01-07T13:38:03;1.67;;;1.50;;
11171;SDS011;5642;50.830;12.082;2024-01-07T13:40:34;2.65;;;2.10;;
11171;SDS011;5642;50.830;12.082;2024-01-07T13:43:13;2.45;;;2.00;;
11171;SDS011;5642;50.830;12.082;2024-01-07T13:45:55;2.17;;;1.70;;
11171;SDS011;5642;50.830;12.082;2024-01-07T13:48:30;3.53;;;2.33;;
11171;SDS011;5642;50.830;12.082;2024-01-07T13:51:02;2.67;;;1.98;;
11171;SDS011;5642;50.830;12.082;2024-01-07T13:53:42;2.47;;;2.05;;
11171;SDS011;5642;50.830;12.082;2024-01-07T13:56:09;2.28;;;1.95;;
11171;SDS011;5642;50.830;12.082;2024-01-07T13:58:40;2.35;;;1.92;;
11171;SDS011;5642;50.830;12.082;2024-01-07T14:01:18;2.10;;;1.90;;
11171;SDS011;5642;50.830;12.082;2024-01-07T14:03:58;2.17;;;1.88;;
11171;SDS011;5642;50.830;12.082;2024-01-07T14:06:31;2.15;;;1.90;;
11171;SDS011;5642;50.830;12.082;2024-01-07T14:09:00;1.92;;;1.58;;
11171;SDS011;5642;50.830;12.082;2024-01-07T14:11:50;1.42;;;1.33;;
11171;SDS011;5642;50.830;12.082;2024-01-07T14:14:34;1.52;;;1.42;;
11171;SDS011;5642;50.830;12.082;2024-01-07T14:17:08;1.40;;;1.30;;
11171;SDS011;5642;50.830;12.082;2024-01-07T14:19:45;1.13;;;1.08;;
11171;SDS011;5642;50.830;12.082;2024-01-07T14:22:22;1.42;;;1.33;;
11171;SDS011;5642;50.830;12.082;2024-01-07T14:24:51;1.30;;;1.20;;
11171;SDS011;5642;50.830;12.082;2024-01-07T14:27:30;1.38;;;1.27;;
11171;SDS011;5642;50.830;12.082;2024-01-07T14:29:58;1.40;;;1.30;;
11171;SDS011;5642;50.830;12.082;2024-01-07T14:32:37;1.30;;;1.20;;
11171;SDS011;5642;50.830;12.082;2024-01-07T14:35:13;1.23;;;1.20;;
11171;SDS011;5642;50.830;12.082;2024-01-07T14:37:45;0.98;;;0.98;;
11171;SDS011;5642;50.830;12.082;2024-01-07T14:40:19;1.40;;;1.30;;
11171;SDS011;5642;50.830;12.082;2024-01-07T14:42:57;1.10;;;1.10;;
11171;SDS011;5642;50.830;12.082;2024-01-07T14:45:35;1.20;;;1.20;;
11171;SDS011;5642;50.830;12.082;2024-01-07T14:48:05;1.40;;;1.30;;
11171;SDS011;5642;50.830;12.082;2024-01-07T14:50:38;1.33;;;1.10;;
11171;SDS011;5642;50.830;12.082;2024-01-07T14:53:21;1.23;;;1.13;;
11171;SDS011;5642;50.830;12.082;2024-01-07T14:56:01;1.05;;;1.05;;
11171;SDS011;5642;50.830;12.082;2024-01-07T14:58:28;1.30;;;1.20;;
11171;SDS011;5642;50.830;12.082;2024-01-07T15:00:58;1.30;;;1.20;;
11171;SDS011;5642;50.830;12.082;2024-01-07T15:03:37;1.10;;;1.10;;
11171;SDS011;5642;50.830;12.082;2024-01-07T15:06:10;1.25;;;1.15;;
11171;SDS011;5642;50.830;12.082;2024-01-07T15:08:41;1.50;;;1.40;;
11171;SDS011;5642;50.830;12.082;2024-01-07T15:11:27;1.83;;;1.58;;
11171;SDS011;5642;50.830;12.082;2024-01-07T15:14:08;1.40;;;1.30;;
11171;SDS011;5642;50.830;12.082;2024-01-07T15:16:42;1.38;;;1.27;;
11171;SDS011;5642;50.830;12.082;2024-01-07T15:19:16;1.27;;;1.17;;
11171;SDS011;5642;50.830;12.082;2024-01-07T15:21:58;1.00;;;1.00;;
11171;SDS011;5642;50.830;12.082;2024-01-07T15:24:42;1.10;;;1.10;;
11171;SDS011;5642;50.830;12.082;2024-01-07T15:27:31;1.37;;;1.27;;
11171;SDS011;5642;50.830;12.082;2024-01-07T15:30:14;1.20;;;1.10;;
11171;SDS011;5642;50.830;12.082;2024-01-07T15:32:46;1.00;;;1.00;;
11171;SDS011;5642;50.830;12.082;2024-01-07T15:35:26;1.40;;;1.30;;
11171;SDS011;5642;50.830;12.082;2024-01-07T15:38:09;1.08;;;1.08;;
11171;SDS011;5642;50.830;12.082;2024-01-07T15:40:43;0.90;;;0.90;;
11171;SDS011;5642;50.830;12.082;2024-01-07T15:43:26;1.48;;;1.30;;
11171;SDS011;5642;50.830;12.082;2024-01-07T15:45:53;1.20;;;1.10;;
11171;SDS011;5642;50.830;12.082;2024-01-07T15:48:34;1.08;;;1.02;;
11171;SDS011;5642;50.830;12.082;2024-01-07T15:51:03;1.33;;;1.23;;
11171;SDS011;5642;50.830;12.082;2024-01-07T15:53:33;1.33;;;1.23;;
11171;SDS011;5642;50.830;12.082;2024-01-07T15:56:00;1.55;;;1.42;;
11171;SDS011;5642;50.830;12.082;2024-01-07T15:58:38;1.00;;;1.00;;
11171;SDS011;5642;50.830;12.082;2024-01-07T16:01:07;1.10;;;1.10;;
11171;SDS011;5642;50.830;12.082;2024-01-07T16:03:36;1.27;;;1.20;;
11171;SDS011;5642;50.830;12.082;2024-01-07T16:06:20;1.40;;;1.30;;
11171;SDS011;5642;50.830;12.082;2024-01-07T16:08:57;1.42;;;1.33;;
11171;SDS011;5642;50.830;12.082;2024-01-07T16:11:41;1.40;;;1.30;;
11171;SDS011;5642;50.830;12.082;2024-01-07T16:14:18;1.27;;;1.17;;
11171;SDS011;5642;50.830;12.082;2024-01-07T16:16:53;1.27;;;1.17;;
11171;SDS011;5642;50.830;12.082;2024-01-07T16:19:20;1.07;;;1.07;;
11171;SDS011;5642;50.830;12.082;2024-01-07T16:21:53;1.30;;;1.20;;
11171;SDS011;5642;50.830;12.082;2024-01-07T16:24:25;1.23;;;1.13;;
11171;SDS011;5642;50.830;12.082;2024-01-07T16:26:53;1.17;;;1.10;;
11171;SDS011;5642;50.830;12.082;2024-01-07T16:29:22;1.80;;;1.35;;
11171;SDS011;5642;50.830;12.082;2024-01-07T16:31:51;1.38;;;1.27;;
11171;SDS011;5642;50.830;12.082;2024-01-07T16:34:18;1.35;;;1.25;;
11171;SDS011;5642;50.830;12.082;2024-01-07T16:36:52;1.50;;;1.40;;
11171;SDS011;5642;50.830;12.082;2024-01-07T16:39:19;1.60;;;1.50;;
11171;SDS011;5642;50.830;12.082;2024-01-07T16:41:45;1.48;;;1.38;;
11171;SDS011;5642;50.830;12.082;2024-01-07T16:44:12;1.50;;;1.40;;
11171;SDS011;5642;50.830;12.082;2024-01-07T16:46:42;1.45;;;1.35;;
11171;SDS011;5642;50.830;12.082;2024-01-07T16:49:10;1.53;;;1.43;;
11171;SDS011;5642;50.830;12.082;2024-01-07T16:51:42;1.55;;;1.40;;